sensor_id;sensor_type;location;lat;lon;timestamp;pressure;altitude;pressure_sealevel;temperature;humidity
32789;BME280;19141;48.980;8.410;2023-01-28T05:22:33;101029.69;;;1.75;100.00
32789;BME280;19141;48.980;8.410;2023-01-28T05:25:14;101039.91;;;1.79;100.00
32789;BME280;19141;48.980;8.410;2023-01-28T05:27:40;101038.97;;;1.80;100.00
32789;BME280;19141;48.980;8.410;2023-01-28T05:30:05;101040.00;;;1.78;100.00
32789;BME280;19141;48.980;8.410;2023-01-28T05:32:31;101043.47;;;1.78;100.00
32789;BME280;19141;48.980;8.410;2023-01-28T05:34:57;101048.34;;;1.84;100.00
32789;BME280;19141;48.980;8.410;2023-01-28T05:37:23;101040.75;;;1.80;100.00
32789;BME280;19141;48.980;8.410;2023-01-28T05:39:54;101041.13;;;1.74;100.00
32789;BME280;19141;48.980;8.410;2023-01-28T05:42:19;101045.25;;;1.78;100.00
32789;BME280;19141;48.980;8.410;2023-01-28T05:44:49;101045.25;;;1.78;100.00
32789;BME280;19141;48.980;8.410;2023-01-28T05:47:21;101050.63;;;1.76;100.00
32789;BME280;19141;48.980;8.410;2023-01-28T05:49:55;101049.47;;;1.80;100.00
32789;BME280;19141;48.980;8.410;2023-01-28T05:52:35;101046.28;;;1.75;100.00
32789;BME280;19141;48.980;8.410;2023-01-28T05:55:01;101063.53;;;1.79;100.00
32789;BME280;19141;48.980;8.410;2023-01-28T05:57:27;101064.22;;;1.83;100.00
32789;BME280;19141;48.980;8.410;2023-01-28T05:59:52;101063.16;;;1.85;100.00
32789;BME280;19141;48.980;8.410;2023-01-28T06:02:18;101062.22;;;1.86;100.00
32789;BME280;19141;48.980;8.410;2023-01-28T06:04:43;101069.03;;;1.89;100.00
32789;BME280;19141;48.980;8.410;2023-01-28T06:07:09;101074.22;;;1.90;100.00
32789;BME280;19141;48.980;8.410;2023-01-28T06:09:37;101072.44;;;1.91;100.00
32789;BME280;19141;48.980;8.410;2023-01-28T06:12:04;101076.75;;;1.92;100.00
32789;BME280;19141;48.980;8.410;2023-01-28T06:14:37;101089.22;;;1.88;100.00
32789;BME280;19141;48.980;8.410;2023-01-28T06:17:31;101077.03;;;1.87;100.00
32789;BME280;19141;48.980;8.410;2023-01-28T06:20:07;101082.50;;;1.84;100.00
32789;BME280;19141;48.980;8.410;2023-01-28T06:22:35;101091.13;;;1.86;100.00
32789;BME280;19141;48.980;8.410;2023-01-28T06:25:00;101097.31;;;1.85;100.00
32789;BME280;19141;48.980;8.410;2023-01-28T06:27:26;101101.28;;;1.78;100.00
32789;BME280;19141;48.980;8.410;2023-01-28T06:29:52;101088.88;;;1.80;100.00
32789;BME280;19141;48.980;8.410;2023-01-28T06:32:17;101102.22;;;1.77;100.00
32789;BME280;19141;48.980;8.410;2023-01-28T06:34:43;101102.75;;;1.82;100.00
32789;BME280;19141;48.980;8.410;2023-01-28T06:37:11;101105.19;;;1.85;100.00
32789;BME280;19141;48.980;8.410;2023-01-28T06:39:37;101112.88;;;1.88;100.00
32789;BME280;19141;48.980;8.410;2023-01-28T06:42:02;101109.25;;;1.77;100.00
32789;BME280;19141;48.980;8.410;2023-01-28T06:44:28;101114.13;;;1.83;100.00
32789;BME280;19141;48.980;8.410;2023-01-28T06:46:53;101114.97;;;1.83;100.00
32789;BME280;19141;48.980;8.410;2023-01-28T06:49:18;101117.13;;;1.77;100.00
32789;BME280;19141;48.980;8.410;2023-01-28T06:51:45;101114.41;;;1.78;100.00
32789;BME280;19141;48.980;8.410;2023-01-28T06:54:10;101116.75;;;1.83;100.00
32789;BME280;19141;48.980;8.410;2023-01-28T06:56:36;101122.09;;;1.81;100.00
32789;BME280;19141;48.980;8.410;2023-01-28T06:59:01;101125.56;;;1.82;100.00
32789;BME280;19141;48.980;8.410;2023-01-28T07:01:27;101125.28;;;1.86;100.00
32789;BME280;19141;48.980;8.410;2023-01-28T07:03:52;101128.75;;;1.87;100.00
32789;BME280;19141;48.980;8.410;2023-01-28T07:06:17;101133.25;;;1.85;100.00
32789;BME280;19141;48.980;8.410;2023-01-28T07:08:43;101134.28;;;1.82;100.00
32789;BME280;19141;48.980;8.410;2023-01-28T07:11:08;101134.72;;;1.89;100.00
32789;BME280;19141;48.980;8.410;2023-01-28T07:13:34;101135.31;;;1.80;100.00
32789;BME280;19141;48.980;8.410;2023-01-28T07:15:59;101139.47;;;1.84;100.00
32789;BME280;19141;48.980;8.410;2023-01-28T07:18:25;101141.97;;;1.85;100.00
32789;BME280;19141;48.980;8.410;2023-01-28T07:20:50;101140.00;;;1.89;100.00
32789;BME280;19141;48.980;8.410;2023-01-28T07:23:16;101143.50;;;1.89;100.00
32789;BME280;19141;48.980;8.410;2023-01-28T07:25:41;101139.72;;;1.94;100.00
32789;BME280;19141;48.980;8.410;2023-01-28T07:28:06;101139.91;;;1.90;100.00
32789;BME280;19141;48.980;8.410;2023-01-28T07:30:32;101146.84;;;1.92;100.00
32789;BME280;19141;48.980;8.410;2023-01-28T07:32:58;101148.44;;;1.94;100.00
32789;BME280;19141;48.980;8.410;2023-01-28T07:35:24;101148.75;;;1.89;100.00
32789;BME280;19141;48.980;8.410;2023-01-28T07:37:54;101154.53;;;1.95;100.00
32789;BME280;19141;48.980;8.410;2023-01-28T07:40:21;101152.97;;;1.92;100.00
32789;BME280;19141;48.980;8.410;2023-01-28T07:42:46;101157.75;;;1.85;100.00
32789;BME280;19141;48.980;8.410;2023-01-28T07:45:13;101160.94;;;1.90;100.00
32789;BME280;19141;48.980;8.410;2023-01-28T07:47:38;101153.78;;;1.93;100.00
32789;BME280;19141;48.980;8.410;2023-01-28T07:50:04;101159.63;;;1.98;100.00
32789;BME280;19141;48.980;8.410;2023-01-28T07:52:29;101163.81;;;2.00;100.00
32789;BME280;19141;48.980;8.410;2023-01-28T07:54:55;101171.25;;;1.94;100.00
32789;BME280;19141;48.980;8.410;2023-01-28T07:57:20;101168.63;;;1.94;100.00
32789;BME280;19141;48.980;8.410;2023-01-28T07:59:49;101171.06;;;1.97;100.00
32789;BME280;19141;48.980;8.410;2023-01-28T08:02:17;101173.50;;;2.00;100.00
32789;BME280;19141;48.980;8.410;2023-01-28T08:04:43;101179.59;;;2.00;100.00
32789;BME280;19141;48.980;8.410;2023-01-28T08:07:08;101169.75;;;2.04;100.00
32789;BME280;19141;48.980;8.410;2023-01-28T08:09:33;101177.81;;;2.01;100.00
32789;BME280;19141;48.980;8.410;2023-01-28T08:12:02;101175.50;;;1.96;100.00
32789;BME280;19141;48.980;8.410;2023-01-28T08:14:28;101179.03;;;1.95;100.00
32789;BME280;19141;48.980;8.410;2023-01-28T08:16:53;101184.84;;;2.00;100.00
32789;BME280;19141;48.980;8.410;2023-01-28T08:19:19;101190.22;;;1.99;100.00
32789;BME280;19141;48.980;8.410;2023-01-28T08:21:49;101188.16;;;2.04;100.00
32789;BME280;19141;48.980;8.410;2023-01-28T08:24:15;101190.78;;;2.04;100.00
32789;BME280;19141;48.980;8.410;2023-01-28T08:26:40;101193.69;;;1.99;100.00
32789;BME280;19141;48.980;8.410;2023-01-28T08:29:06;101192.00;;;1.98;100.00
32789;BME280;19141;48.980;8.410;2023-01-28T08:31:31;101194.13;;;2.06;100.00
32789;BME280;19141;48.980;8.410;2023-01-28T08:33:56;101193.78;;;1.98;100.00
32789;BME280;19141;48.980;8.410;2023-01-28T08:36:22;101198.09;;;1.99;100.00
32789;BME280;19141;48.980;8.410;2023-01-28T08:38:51;101195.47;;;1.99;100.00
32789;BME280;19141;48.980;8.410;2023-01-28T08:41:20;101190.78;;;2.04;100.00
32789;BME280;19141;48.980;8.410;2023-01-28T08:43:46;101199.41;;;1.92;100.00
32789;BME280;19141;48.980;8.410;2023-01-28T08:46:11;101190.78;;;2.04;100.00
32789;BME280;19141;48.980;8.410;2023-01-28T08:48:37;101199.28;;;2.07;100.00
32789;BME280;19141;48.980;8.410;2023-01-28T08:51:02;101195.44;;;2.13;100.00
32789;BME280;19141;48.980;8.410;2023-01-28T08:53:28;101197.06;;;2.15;100.00
32789;BME280;19141;48.980;8.410;2023-01-28T08:55:53;101198.06;;;2.13;100.00
32789;BME280;19141;48.980;8.410;2023-01-28T08:58:19;101199.38;;;2.20;100.00
32789;BME280;19141;48.980;8.410;2023-01-28T09:00:46;101194.97;;;2.21;100.00
32789;BME280;19141;48.980;8.410;2023-01-28T09:03:12;101199.69;;;2.15;100.00
32789;BME280;19141;48.980;8.410;2023-01-28T09:05:37;101203.41;;;2.26;100.00
32789;BME280;19141;48.980;8.410;2023-01-28T09:08:05;101201.72;;;2.25;100.00
32789;BME280;19141;48.980;8.410;2023-01-28T09:10:31;101194.22;;;2.18;100.00
32789;BME280;19141;48.980;8.410;2023-01-28T09:12:56;101199.47;;;2.18;100.00
32789;BME280;19141;48.980;8.410;2023-01-28T09:15:22;101194.88;;;2.08;100.00
32789;BME280;19141;48.980;8.410;2023-01-28T09:17:48;101208.59;;;2.13;100.00
32789;BME280;19141;48.980;8.410;2023-01-28T09:20:13;101210.00;;;2.18;100.00
32789;BME280;19141;48.980;8.410;2023-01-28T09:22:39;101209.72;;;2.23;100.00
32789;BME280;19141;48.980;8.410;2023-01-28T09:25:04;101213.66;;;2.30;100.00
32789;BME280;19141;48.980;8.410;2023-01-28T09:27:30;101213.66;;;2.30;100.00
32789;BME280;19141;48.980;8.410;2023-01-28T09:29:56;101222.16;;;2.34;100.00
32789;BME280;19141;48.980;8.410;2023-01-28T09:32:21;101218.78;;;2.32;100.00
32789;BME280;19141;48.980;8.410;2023-01-28T09:34:49;101211.28;;;2.26;100.00
32789;BME280;19141;48.980;8.410;2023-01-28T09:37:14;101224.72;;;2.35;100.00
32789;BME280;19141;48.980;8.410;2023-01-28T09:39:40;101228.25;;;2.34;100.00
32789;BME280;19141;48.980;8.410;2023-01-28T09:42:30;101226.97;;;2.41;100.00
32789;BME280;19141;48.980;8.410;2023-01-28T09:45:16;101229.38;;;2.44;100.00
32789;BME280;19141;48.980;8.410;2023-01-28T09:47:58;101236.44;;;2.44;100.00
32789;BME280;19141;48.980;8.410;2023-01-28T09:52:54;101233.13;;;2.40;100.00
32789;BME280;19141;48.980;8.410;2023-01-28T09:57:54;101240.47;;;2.50;100.00
32789;BME280;19141;48.980;8.410;2023-01-28T10:00:29;101241.56;;;2.60;100.00
32789;BME280;19141;48.980;8.410;2023-01-28T10:03:21;101244.75;;;2.65;100.00
32789;BME280;19141;48.980;8.410;2023-01-28T10:06:14;101240.78;;;2.72;100.00
32789;BME280;19141;48.980;8.410;2023-01-28T10:16:45;101242.31;;;2.89;100.00
32789;BME280;19141;48.980;8.410;2023-01-28T10:19:20;101240.72;;;2.86;100.00
32789;BME280;19141;48.980;8.410;2023-01-28T10:21:59;101229.47;;;2.84;100.00
32789;BME280;19141;48.980;8.410;2023-01-28T10:24:42;101229.13;;;2.76;100.00
32789;BME280;19141;48.980;8.410;2023-01-28T10:27:15;101228.28;;;2.76;100.00
32789;BME280;19141;48.980;8.410;2023-01-28T10:29:41;101227.44;;;2.75;100.00
32789;BME280;19141;48.980;8.410;2023-01-28T10:32:27;101227.13;;;2.80;100.00
32789;BME280;19141;48.980;8.410;2023-01-28T10:34:54;101232.31;;;2.81;100.00
32789;BME280;19141;48.980;8.410;2023-01-28T10:37:20;101223.63;;;2.79;100.00
32789;BME280;19141;48.980;8.410;2023-01-28T10:39:46;101229.56;;;2.83;100.00
32789;BME280;19141;48.980;8.410;2023-01-28T10:42:35;101229.75;;;2.80;100.00
32789;BME280;19141;48.980;8.410;2023-01-28T10:50:58;101229.63;;;2.68;100.00
32789;BME280;19141;48.980;8.410;2023-01-28T10:53:52;101234.56;;;2.73;100.00
32789;BME280;19141;48.980;8.410;2023-01-28T10:56:24;101236.06;;;2.77;100.00
32789;BME280;19141;48.980;8.410;2023-01-28T10:59:02;101240.94;;;2.83;100.00
32789;BME280;19141;48.980;8.410;2023-01-28T11:01:43;101236.47;;;2.71;100.00
32789;BME280;19141;48.980;8.410;2023-01-28T11:04:25;101245.63;;;2.78;100.00
32789;BME280;19141;48.980;8.410;2023-01-28T11:07:28;101241.09;;;2.67;100.00
32789;BME280;19141;48.980;8.410;2023-01-28T11:09:49;101240.59;;;2.75;100.00
32789;BME280;19141;48.980;8.410;2023-01-28T11:12:21;101246.38;;;2.80;100.00
32789;BME280;19141;48.980;8.410;2023-01-28T11:15:01;101244.69;;;2.79;100.00
32789;BME280;19141;48.980;8.410;2023-01-28T11:17:37;101236.47;;;2.71;100.00
32789;BME280;19141;48.980;8.410;2023-01-28T11:20:12;101250.78;;;2.80;100.00
32789;BME280;19141;48.980;8.410;2023-01-28T11:22:44;101240.59;;;2.75;100.00
32789;BME280;19141;48.980;8.410;2023-01-28T11:25:22;101242.78;;;2.68;100.00
32789;BME280;19141;48.980;8.410;2023-01-28T11:27:51;101244.06;;;2.76;100.00
32789;BME280;19141;48.980;8.410;2023-01-28T11:30:26;101240.28;;;2.80;100.00
32789;BME280;19141;48.980;8.410;2023-01-28T11:33:11;101247.31;;;2.79;100.00
32789;BME280;19141;48.980;8.410;2023-01-28T11:35:38;101250.16;;;2.76;100.00
32789;BME280;19141;48.980;8.410;2023-01-28T11:38:18;101239.16;;;2.84;100.00
32789;BME280;19141;48.980;8.410;2023-01-28T11:40:51;101242.44;;;2.87;100.00
32789;BME280;19141;48.980;8.410;2023-01-28T11:43:21;101250.13;;;2.90;100.00
32789;BME280;19141;48.980;8.410;2023-01-28T11:48:43;101245.13;;;3.00;100.00
32789;BME280;19141;48.980;8.410;2023-01-28T11:51:28;101244.50;;;2.82;98.95
32789;BME280;19141;48.980;8.410;2023-01-28T11:59:50;101246.88;;;2.99;99.14
32789;BME280;19141;48.980;8.410;2023-01-28T12:05:20;101248.09;;;3.08;97.02
32789;BME280;19141;48.980;8.410;2023-01-28T12:13:47;101237.28;;;2.98;95.31
32789;BME280;19141;48.980;8.410;2023-01-28T12:24:53;101231.28;;;2.96;96.04
32789;BME280;19141;48.980;8.410;2023-01-28T12:27:43;101231.19;;;2.98;96.14
32789;BME280;19141;48.980;8.410;2023-01-28T12:36:09;101220.16;;;3.06;95.10
32789;BME280;19141;48.980;8.410;2023-01-28T12:41:31;101215.97;;;3.16;95.08
32789;BME280;19141;48.980;8.410;2023-01-28T12:44:01;101216.16;;;3.13;94.16
32789;BME280;19141;48.980;8.410;2023-01-28T12:46:47;101213.97;;;3.19;93.79
32789;BME280;19141;48.980;8.410;2023-01-28T12:49:24;101221.84;;;3.19;92.21
32789;BME280;19141;48.980;8.410;2023-01-28T12:54:59;101213.38;;;3.29;92.24
32789;BME280;19141;48.980;8.410;2023-01-28T12:57:32;101212.00;;;3.36;90.94
32789;BME280;19141;48.980;8.410;2023-01-28T13:00:22;101215.06;;;3.42;89.80
32789;BME280;19141;48.980;8.410;2023-01-28T13:05:50;101206.97;;;3.33;87.82
32789;BME280;19141;48.980;8.410;2023-01-28T13:08:21;101208.41;;;3.37;87.77
32789;BME280;19141;48.980;8.410;2023-01-28T13:10:47;101197.44;;;3.30;88.67
32789;BME280;19141;48.980;8.410;2023-01-28T13:13:17;101207.56;;;3.36;88.43
32789;BME280;19141;48.980;8.410;2023-01-28T13:15:44;101207.78;;;3.33;87.80
32789;BME280;19141;48.980;8.410;2023-01-28T13:18:33;101208.22;;;3.27;88.18
32789;BME280;19141;48.980;8.410;2023-01-28T13:21:00;101209.47;;;3.34;88.77
32789;BME280;19141;48.980;8.410;2023-01-28T13:24:19;101217.81;;;3.41;88.02
32789;BME280;19141;48.980;8.410;2023-01-28T13:31:41;101215.19;;;3.41;86.92
32789;BME280;19141;48.980;8.410;2023-01-28T13:34:25;101217.81;;;3.41;86.46
32789;BME280;19141;48.980;8.410;2023-01-28T13:36:52;101220.31;;;3.30;85.51
32789;BME280;19141;48.980;8.410;2023-01-28T13:39:22;101221.69;;;3.35;86.15
32789;BME280;19141;48.980;8.410;2023-01-28T13:41:51;101220.03;;;3.34;85.37
32789;BME280;19141;48.980;8.410;2023-01-28T13:46:42;101225.69;;;3.28;86.59
32789;BME280;19141;48.980;8.410;2023-01-28T13:49:11;101230.75;;;3.31;86.86
32789;BME280;19141;48.980;8.410;2023-01-28T13:51:49;101230.13;;;3.28;87.24
32789;BME280;19141;48.980;8.410;2023-01-28T13:54:20;101236.41;;;3.25;85.51
32789;BME280;19141;48.980;8.410;2023-01-28T13:59:41;101240.94;;;3.23;87.09
32789;BME280;19141;48.980;8.410;2023-01-28T14:05:11;101249.69;;;3.23;86.02
32789;BME280;19141;48.980;8.410;2023-01-28T14:08:06;101249.69;;;3.23;85.67
32789;BME280;19141;48.980;8.410;2023-01-28T14:10:50;101250.75;;;3.21;86.39
32789;BME280;19141;48.980;8.410;2023-01-28T14:13:49;101252.63;;;3.19;85.80
32789;BME280;19141;48.980;8.410;2023-01-28T14:19:32;101262.13;;;3.21;86.02
32789;BME280;19141;48.980;8.410;2023-01-28T14:21:57;101265.31;;;3.26;83.74
32789;BME280;19141;48.980;8.410;2023-01-28T14:24:23;101267.16;;;3.24;83.72
32789;BME280;19141;48.980;8.410;2023-01-28T14:26:57;101276.03;;;3.23;83.53
32789;BME280;19141;48.980;8.410;2023-01-28T14:29:37;101281.94;;;3.27;83.73
32789;BME280;19141;48.980;8.410;2023-01-28T14:32:14;101282.69;;;3.29;83.83
32789;BME280;19141;48.980;8.410;2023-01-28T14:34:40;101287.28;;;3.25;83.98
32789;BME280;19141;48.980;8.410;2023-01-28T14:37:09;101283.63;;;3.28;83.75
32789;BME280;19141;48.980;8.410;2023-01-28T14:39:50;101293.31;;;3.28;82.59
32789;BME280;19141;48.980;8.410;2023-01-28T14:42:23;101298.16;;;3.21;81.36
32789;BME280;19141;48.980;8.410;2023-01-28T14:47:58;101295.16;;;3.13;82.77
32789;BME280;19141;48.980;8.410;2023-01-28T14:56:15;101306.78;;;3.23;82.88
32789;BME280;19141;48.980;8.410;2023-01-28T14:58:52;101302.34;;;3.23;82.88
32789;BME280;19141;48.980;8.410;2023-01-28T15:01:27;101297.94;;;3.24;81.98
32789;BME280;19141;48.980;8.410;2023-01-28T15:03:52;101312.16;;;3.21;81.57
32789;BME280;19141;48.980;8.410;2023-01-28T15:06:21;101301.06;;;3.16;82.16
32789;BME280;19141;48.980;8.410;2023-01-28T15:08:52;101302.88;;;3.16;82.04
32789;BME280;19141;48.980;8.410;2023-01-28T15:11:23;101310.75;;;3.16;81.86
32789;BME280;19141;48.980;8.410;2023-01-28T15:13:55;101314.63;;;3.10;82.08
32789;BME280;19141;48.980;8.410;2023-01-28T15:16:27;101310.22;;;3.11;82.48
32789;BME280;19141;48.980;8.410;2023-01-28T15:18:58;101313.22;;;3.05;82.78
32789;BME280;19141;48.980;8.410;2023-01-28T15:21:26;101306.09;;;3.07;84.03
32789;BME280;19141;48.980;8.410;2023-01-28T15:23:58;101316.81;;;3.04;83.43
32789;BME280;19141;48.980;8.410;2023-01-28T15:26:26;101326.06;;;2.96;83.11
32789;BME280;19141;48.980;8.410;2023-01-28T15:28:53;101319.22;;;2.80;84.23
32789;BME280;19141;48.980;8.410;2023-01-28T15:31:23;101320.00;;;2.82;82.61
32789;BME280;19141;48.980;8.410;2023-01-28T15:34:17;101331.75;;;2.76;82.78
32789;BME280;19141;48.980;8.410;2023-01-28T15:36:43;101339.81;;;2.73;84.58
32789;BME280;19141;48.980;8.410;2023-01-28T15:39:20;101339.81;;;2.73;83.67
32789;BME280;19141;48.980;8.410;2023-01-28T15:41:50;101339.63;;;2.76;84.06
32789;BME280;19141;48.980;8.410;2023-01-28T15:44:30;101342.94;;;2.65;83.66
32789;BME280;19141;48.980;8.410;2023-01-28T15:47:01;101350.19;;;2.62;83.17
32789;BME280;19141;48.980;8.410;2023-01-28T15:49:35;101341.53;;;2.60;82.69
32789;BME280;19141;48.980;8.410;2023-01-28T15:52:02;101348.19;;;2.51;84.03
32789;BME280;19141;48.980;8.410;2023-01-28T15:54:28;101351.56;;;2.53;83.83
32789;BME280;19141;48.980;8.410;2023-01-28T15:56:55;101342.66;;;2.56;83.26
32789;BME280;19141;48.980;8.410;2023-01-28T15:59:25;101348.19;;;2.51;82.09
32789;BME280;19141;48.980;8.410;2023-01-28T16:02:17;101350.00;;;2.51;83.45
32789;BME280;19141;48.980;8.410;2023-01-28T16:04:54;101348.47;;;2.47;83.25
32789;BME280;19141;48.980;8.410;2023-01-28T16:07:20;101345.56;;;2.51;82.80
32789;BME280;19141;48.980;8.410;2023-01-28T16:09:50;101347.00;;;2.57;81.65
32789;BME280;19141;48.980;8.410;2023-01-28T16:12:17;101344.72;;;2.51;82.27
32789;BME280;19141;48.980;8.410;2023-01-28T16:14:45;101347.09;;;2.55;81.17
32789;BME280;19141;48.980;8.410;2023-01-28T16:17:18;101337.41;;;2.56;81.43
32789;BME280;19141;48.980;8.410;2023-01-28T16:19:47;101339.56;;;2.49;82.07
32789;BME280;19141;48.980;8.410;2023-01-28T16:22:34;101340.53;;;2.48;82.90
32789;BME280;19141;48.980;8.410;2023-01-28T16:25:01;101339.28;;;2.39;82.35
32789;BME280;19141;48.980;8.410;2023-01-28T16:27:28;101344.16;;;2.45;82.46
32789;BME280;19141;48.980;8.410;2023-01-28T16:29:55;101352.16;;;2.44;82.43
32789;BME280;19141;48.980;8.410;2023-01-28T16:32:33;101345.22;;;2.43;82.80
32789;BME280;19141;48.980;8.410;2023-01-28T16:34:59;101345.00;;;2.32;82.07
32789;BME280;19141;48.980;8.410;2023-01-28T16:37:25;101345.13;;;2.30;83.42
32789;BME280;19141;48.980;8.410;2023-01-28T16:39:51;101340.97;;;2.40;82.49
32789;BME280;19141;48.980;8.410;2023-01-28T16:42:17;101337.88;;;2.34;83.17
32789;BME280;19141;48.980;8.410;2023-01-28T16:44:42;101341.91;;;2.39;83.02
32789;BME280;19141;48.980;8.410;2023-01-28T16:47:08;101342.13;;;2.36;82.84
32789;BME280;19141;48.980;8.410;2023-01-28T16:49:34;101332.72;;;2.32;82.82
32789;BME280;19141;48.980;8.410;2023-01-28T16:52:00;101340.69;;;2.31;83.51
32789;BME280;19141;48.980;8.410;2023-01-28T16:54:26;101339.13;;;2.28;82.66
32789;BME280;19141;48.980;8.410;2023-01-28T16:56:52;101339.84;;;2.30;83.10
32789;BME280;19141;48.980;8.410;2023-01-28T16:59:18;101344.16;;;2.31;82.81
32789;BME280;19141;48.980;8.410;2023-01-28T17:01:46;101342.66;;;2.27;83.28
32789;BME280;19141;48.980;8.410;2023-01-28T17:04:12;101352.22;;;2.14;83.72
32789;BME280;19141;48.980;8.410;2023-01-28T17:06:38;101346.91;;;2.15;84.38
32789;BME280;19141;48.980;8.410;2023-01-28T17:09:06;101364.72;;;2.25;84.00
32789;BME280;19141;48.980;8.410;2023-01-28T17:11:32;101365.69;;;2.24;83.88
32789;BME280;19141;48.980;8.410;2023-01-28T17:13:58;101372.72;;;2.23;83.19
32789;BME280;19141;48.980;8.410;2023-01-28T17:16:24;101373.09;;;2.17;82.78
32789;BME280;19141;48.980;8.410;2023-01-28T17:18:50;101373.25;;;2.14;83.68
32789;BME280;19141;48.980;8.410;2023-01-28T17:21:16;101378.34;;;2.17;83.62
32789;BME280;19141;48.980;8.410;2023-01-28T17:23:41;101376.56;;;2.17;83.41
32789;BME280;19141;48.980;8.410;2023-01-28T17:26:09;101377.97;;;2.09;82.84
32789;BME280;19141;48.980;8.410;2023-01-28T17:28:35;101373.13;;;2.01;83.27
32789;BME280;19141;48.980;8.410;2023-01-28T17:31:05;101379.19;;;2.17;83.70
32789;BME280;19141;48.980;8.410;2023-01-28T17:33:30;101384.25;;;2.21;82.94
32789;BME280;19141;48.980;8.410;2023-01-28T17:35:56;101383.25;;;2.23;82.28
32789;BME280;19141;48.980;8.410;2023-01-28T17:38:22;101385.75;;;2.25;82.55
32789;BME280;19141;48.980;8.410;2023-01-28T17:40:47;101379.09;;;2.19;82.65
32789;BME280;19141;48.980;8.410;2023-01-28T17:43:13;101388.75;;;2.18;82.72
32789;BME280;19141;48.980;8.410;2023-01-28T17:45:38;101389.81;;;2.16;82.13
32789;BME280;19141;48.980;8.410;2023-01-28T17:48:04;101395.06;;;2.16;83.04
32789;BME280;19141;48.980;8.410;2023-01-28T17:50:30;101407.16;;;2.18;84.97
32789;BME280;19141;48.980;8.410;2023-01-28T17:52:56;101399.28;;;2.18;83.66
32789;BME280;19141;48.980;8.410;2023-01-28T17:55:23;101393.81;;;2.07;84.17
32789;BME280;19141;48.980;8.410;2023-01-28T17:57:48;101393.81;;;2.07;83.95
32789;BME280;19141;48.980;8.410;2023-01-28T18:00:14;101392.97;;;2.07;83.30
32789;BME280;19141;48.980;8.410;2023-01-28T18:02:40;101396.53;;;2.06;82.63
32789;BME280;19141;48.980;8.410;2023-01-28T18:05:06;101401.66;;;1.93;83.17
32789;BME280;19141;48.980;8.410;2023-01-28T18:07:32;101405.13;;;1.94;83.09
32789;BME280;19141;48.980;8.410;2023-01-28T18:09:57;101409.88;;;2.03;83.15
32789;BME280;19141;48.980;8.410;2023-01-28T18:12:22;101414.63;;;1.96;83.15
32789;BME280;19141;48.980;8.410;2023-01-28T18:14:48;101415.88;;;2.05;83.17
32789;BME280;19141;48.980;8.410;2023-01-28T18:17:13;101421.16;;;1.89;84.07
32789;BME280;19141;48.980;8.410;2023-01-28T18:19:39;101422.69;;;1.93;83.89
32789;BME280;19141;48.980;8.410;2023-01-28T18:22:04;101414.53;;;1.98;83.99
32789;BME280;19141;48.980;8.410;2023-01-28T18:24:30;101421.75;;;1.94;84.44
32789;BME280;19141;48.980;8.410;2023-01-28T18:26:57;101430.56;;;1.93;84.26
32789;BME280;19141;48.980;8.410;2023-01-28T18:29:25;101431.00;;;1.85;83.93
32789;BME280;19141;48.980;8.410;2023-01-28T18:31:52;101437.22;;;1.84;86.48
32789;BME280;19141;48.980;8.410;2023-01-28T18:34:20;101430.31;;;1.82;84.17
32789;BME280;19141;48.980;8.410;2023-01-28T18:36:46;101435.59;;;1.82;85.04
32789;BME280;19141;48.980;8.410;2023-01-28T18:39:12;101442.81;;;1.78;86.38
32789;BME280;19141;48.980;8.410;2023-01-28T18:41:39;101438.75;;;1.73;85.09
32789;BME280;19141;48.980;8.410;2023-01-28T18:44:05;101449.84;;;1.78;84.64
32789;BME280;19141;48.980;8.410;2023-01-28T18:46:30;101448.16;;;1.77;85.03
32789;BME280;19141;48.980;8.410;2023-01-28T18:48:56;101448.81;;;1.80;84.17
32789;BME280;19141;48.980;8.410;2023-01-28T18:51:22;101445.09;;;1.84;84.64
32789;BME280;19141;48.980;8.410;2023-01-28T18:53:47;101436.38;;;1.84;83.57
32789;BME280;19141;48.980;8.410;2023-01-28T18:56:13;101450.69;;;1.78;83.94
32789;BME280;19141;48.980;8.410;2023-01-28T18:58:38;101457.81;;;1.76;84.17
32789;BME280;19141;48.980;8.410;2023-01-28T19:01:08;101442.56;;;1.67;85.32
32789;BME280;19141;48.980;8.410;2023-01-28T19:03:34;101451.69;;;1.76;83.49
32789;BME280;19141;48.980;8.410;2023-01-28T19:06:04;101454.84;;;1.67;84.53
32789;BME280;19141;48.980;8.410;2023-01-28T19:08:29;101448.66;;;1.68;84.12
32789;BME280;19141;48.980;8.410;2023-01-28T19:10:55;101451.72;;;1.60;84.17
32789;BME280;19141;48.980;8.410;2023-01-28T19:13:21;101450.13;;;1.57;83.62
32789;BME280;19141;48.980;8.410;2023-01-28T19:15:46;101448.94;;;1.47;85.19
32789;BME280;19141;48.980;8.410;2023-01-28T19:18:12;101452.66;;;1.59;84.23
32789;BME280;19141;48.980;8.410;2023-01-28T19:20:37;101451.22;;;1.53;85.12
32789;BME280;19141;48.980;8.410;2023-01-28T19:23:03;101446.81;;;1.54;83.98
32789;BME280;19141;48.980;8.410;2023-01-28T19:25:31;101435.16;;;1.44;84.21
32789;BME280;19141;48.980;8.410;2023-01-28T19:27:59;101448.84;;;1.49;83.79
32789;BME280;19141;48.980;8.410;2023-01-28T19:30:24;101459.53;;;1.46;84.01
32789;BME280;19141;48.980;8.410;2023-01-28T19:32:50;101461.41;;;1.44;84.10
32789;BME280;19141;48.980;8.410;2023-01-28T19:35:15;101456.22;;;1.42;84.46
32789;BME280;19141;48.980;8.410;2023-01-28T19:37:41;101450.81;;;1.45;83.56
32789;BME280;19141;48.980;8.410;2023-01-28T19:40:07;101456.91;;;1.46;82.79
32789;BME280;19141;48.980;8.410;2023-01-28T19:42:32;101448.28;;;1.44;82.68
32789;BME280;19141;48.980;8.410;2023-01-28T19:44:58;101461.13;;;1.48;83.36
32789;BME280;19141;48.980;8.410;2023-01-28T19:47:23;101456.31;;;1.41;81.74
32789;BME280;19141;48.980;8.410;2023-01-28T19:49:49;101452.75;;;1.42;82.05
32789;BME280;19141;48.980;8.410;2023-01-28T19:52:14;101457.06;;;1.43;83.13
32789;BME280;19141;48.980;8.410;2023-01-28T19:54:39;101475.72;;;1.54;82.07